createdAt,value
2022-11-13T00:02:15.184Z,4.10
2022-11-13T00:05:15.588Z,4.07
2022-11-13T00:08:33.523Z,4.05
2022-11-13T00:11:32.390Z,4.06
2022-11-13T00:14:31.383Z,4.03
2022-11-13T00:17:30.469Z,4.03
2022-11-13T00:20:29.414Z,4.03
2022-11-13T00:23:28.407Z,4.02
2022-11-13T00:26:30.441Z,4.00
2022-11-13T00:29:29.599Z,3.98
2022-11-13T00:32:28.673Z,3.95
2022-11-13T00:35:29.604Z,3.95
2022-11-13T00:38:28.537Z,3.92
2022-11-13T00:41:46.459Z,3.91
2022-11-13T00:44:47.428Z,3.89
2022-11-13T00:47:46.000Z,3.87
2022-11-13T00:50:45.390Z,3.88
2022-11-13T00:53:44.135Z,3.87
2022-11-13T00:56:43.170Z,3.86
2022-11-13T01:00:01.380Z,3.85
2022-11-13T01:03:15.121Z,3.83
2022-11-13T01:06:16.650Z,3.82
2022-11-13T01:09:16.867Z,3.81
2022-11-13T01:12:17.511Z,3.77
2022-11-13T01:15:16.308Z,3.75
2022-11-13T01:18:17.124Z,3.73
2022-11-13T01:21:19.278Z,3.68
2022-11-13T01:24:19.880Z,3.62
2022-11-13T01:27:18.528Z,3.59
2022-11-13T01:30:19.847Z,3.57
2022-11-13T01:33:18.167Z,3.54
2022-11-13T01:36:18.724Z,3.52
2022-11-13T01:39:17.822Z,3.49
2022-11-13T01:42:18.741Z,3.45
2022-11-13T01:46:05.790Z,3.43
2022-11-13T01:49:16.768Z,3.39
2022-11-13T01:52:19.140Z,3.34
2022-11-13T01:55:18.276Z,3.30
2022-11-13T01:58:17.506Z,3.27
2022-11-13T02:01:18.418Z,3.24
2022-11-13T02:04:19.035Z,3.21
2022-11-13T02:07:19.277Z,3.15
2022-11-13T02:10:20.265Z,3.11
2022-11-13T02:13:18.835Z,3.05
2022-11-13T02:16:18.967Z,3.01
2022-11-13T02:19:20.989Z,2.98
2022-11-13T02:22:23.356Z,2.96
2022-11-13T02:25:21.614Z,2.91
2022-11-13T02:28:20.282Z,2.91
2022-11-13T02:31:19.338Z,2.87
2022-11-13T02:34:18.300Z,2.83
2022-11-13T02:37:17.319Z,2.78
2022-11-13T02:40:18.936Z,2.75
2022-11-13T02:43:16.937Z,2.71
2022-11-13T02:46:15.945Z,2.69
2022-11-13T02:49:14.918Z,2.68
2022-11-13T02:52:13.962Z,2.65
2022-11-13T02:55:15.835Z,2.62
2022-11-13T02:58:15.579Z,2.59
2022-11-13T03:01:27.698Z,2.56
2022-11-13T03:04:34.782Z,2.53
2022-11-13T03:07:45.973Z,2.50
2022-11-13T03:10:43.973Z,2.46
2022-11-13T03:13:42.775Z,2.43
2022-11-13T03:16:41.805Z,2.40
2022-11-13T03:19:40.904Z,2.38
2022-11-13T03:22:41.771Z,2.34
2022-11-13T03:25:40.370Z,2.31
2022-11-13T03:28:41.483Z,2.24
2022-11-13T03:31:40.001Z,2.22
2022-11-13T03:34:41.027Z,2.19
2022-11-13T03:37:39.625Z,2.15
2022-11-13T03:40:38.642Z,2.13
2022-11-13T03:43:39.738Z,2.10
2022-11-13T03:46:38.263Z,2.07
2022-11-13T03:49:39.260Z,2.06
2022-11-13T03:52:39.855Z,2.03
2022-11-13T03:55:40.752Z,1.99
2022-11-13T03:58:42.826Z,1.96
2022-11-13T04:01:46.488Z,1.97
2022-11-13T04:04:45.486Z,1.95
2022-11-13T04:07:44.133Z,1.96
2022-11-13T04:10:45.223Z,1.93
2022-11-13T04:13:43.707Z,1.93
2022-11-13T04:16:42.746Z,1.92
2022-11-13T04:19:41.747Z,1.92
2022-11-13T04:22:40.763Z,1.91
2022-11-13T04:25:41.770Z,1.91
2022-11-13T04:28:41.085Z,1.89
2022-11-13T04:31:39.419Z,1.89
2022-11-13T04:34:39.398Z,1.90
2022-11-13T04:37:37.816Z,1.89
2022-11-13T04:40:36.405Z,1.89
2022-11-13T04:43:37.444Z,1.91
2022-11-13T04:46:34.751Z,1.92
2022-11-13T04:49:35.395Z,1.90
2022-11-13T04:52:36.018Z,1.89
2022-11-13T04:55:34.822Z,1.91
2022-11-13T04:58:33.684Z,1.89
2022-11-13T05:01:32.717Z,1.90
2022-11-13T05:04:33.684Z,1.90
2022-11-13T05:07:34.280Z,1.90
2022-11-13T05:10:34.848Z,1.90
2022-11-13T05:13:34.258Z,1.87
2022-11-13T05:16:35.835Z,1.83
2022-11-13T05:19:36.672Z,1.81
2022-11-13T05:22:37.238Z,1.81
2022-11-13T05:25:35.908Z,1.77
2022-11-13T05:28:37.369Z,1.74
2022-11-13T05:31:48.994Z,1.71
2022-11-13T05:34:49.878Z,1.70
2022-11-13T05:37:48.527Z,1.67
2022-11-13T05:40:47.492Z,1.64
2022-11-13T05:43:46.985Z,1.62
2022-11-13T05:46:45.545Z,1.61
2022-11-13T05:49:58.336Z,1.60
2022-11-13T05:52:58.903Z,1.60
2022-11-13T05:56:02.278Z,1.59
2022-11-13T05:59:02.327Z,1.56
2022-11-13T06:02:00.448Z,1.55
2022-11-13T06:04:59.339Z,1.54
2022-11-13T06:07:58.331Z,1.54
2022-11-13T06:11:03.485Z,1.53
2022-11-13T06:14:02.911Z,1.52
2022-11-13T06:17:01.776Z,1.47
2022-11-13T06:20:00.771Z,1.46
2022-11-13T06:23:00.294Z,1.46
2022-11-13T06:26:02.871Z,1.42
2022-11-13T06:29:01.899Z,1.41
2022-11-13T06:32:00.103Z,1.37
2022-11-13T06:35:01.066Z,1.34
2022-11-13T06:38:01.639Z,1.31
2022-11-13T06:41:02.696Z,1.29
2022-11-13T06:44:24.695Z,1.26
2022-11-13T06:47:24.629Z,1.24
2022-11-13T06:50:22.876Z,1.22
2022-11-13T06:53:22.059Z,1.19
2022-11-13T06:56:21.423Z,1.17
2022-11-13T06:59:21.900Z,1.17
2022-11-13T07:02:20.509Z,1.16
2022-11-13T07:05:19.617Z,1.14
2022-11-13T07:08:20.984Z,1.15
2022-11-13T07:11:24.288Z,1.12
2022-11-13T07:14:23.131Z,1.12
2022-11-13T07:17:23.966Z,1.11
2022-11-13T07:20:24.782Z,1.11
2022-11-13T07:23:23.433Z,1.11
2022-11-13T07:26:24.290Z,1.10
2022-11-13T07:29:22.753Z,1.12
2022-11-13T07:32:21.834Z,1.12
2022-11-13T07:35:19.743Z,1.15
2022-11-13T07:38:37.943Z,1.16
2022-11-13T07:41:36.460Z,1.23
2022-11-13T07:48:00.302Z,1.29
2022-11-13T07:51:19.221Z,1.33
2022-11-13T07:54:19.495Z,1.36
2022-11-13T07:57:20.816Z,1.38
2022-11-13T08:00:20.299Z,1.45
2022-11-13T08:03:19.052Z,1.51
2022-11-13T08:06:18.011Z,1.60
2022-11-13T08:09:19.282Z,1.78
2022-11-13T08:12:17.651Z,1.87
2022-11-13T08:15:32.640Z,1.90
2022-11-13T08:18:33.365Z,2.24
2022-11-13T08:22:15.510Z,2.32
2022-11-13T08:25:14.259Z,2.42
2022-11-13T08:28:15.196Z,2.62
2022-11-13T08:31:16.813Z,2.64
2022-11-13T08:34:16.014Z,2.76
2022-11-13T08:37:14.949Z,2.91
2022-11-13T08:40:13.361Z,2.94
2022-11-13T08:43:11.451Z,3.25
2022-11-13T08:46:22.091Z,3.45
2022-11-13T08:49:23.053Z,3.46
2022-11-13T08:52:23.890Z,3.58
2022-11-13T08:55:24.702Z,3.71
2022-11-13T08:58:24.445Z,3.91
2022-11-13T09:01:23.472Z,4.04
2022-11-13T09:04:22.625Z,4.31
2022-11-13T09:07:26.951Z,4.49
2022-11-13T09:10:28.045Z,4.65
2022-11-13T09:13:29.548Z,4.80
2022-11-13T09:16:28.153Z,4.99
2022-11-13T09:19:27.949Z,5.25
2022-11-13T09:22:26.130Z,5.40
2022-11-13T09:25:31.364Z,5.43
2022-11-13T09:28:32.289Z,5.62
2022-11-13T09:31:50.498Z,5.72
2022-11-13T09:34:49.365Z,5.86
2022-11-13T09:37:52.758Z,6.09
2022-11-13T09:40:55.751Z,6.24
2022-11-13T09:43:59.736Z,6.32
2022-11-13T09:47:06.394Z,6.43
2022-11-13T09:50:14.897Z,6.54
2022-11-13T09:53:16.996Z,6.54
2022-11-13T09:56:26.336Z,6.69
2022-11-13T09:59:30.218Z,6.80
2022-11-13T10:02:39.040Z,6.94
2022-11-13T10:05:41.268Z,7.13
2022-11-13T10:08:48.630Z,7.08
2022-11-13T10:11:51.764Z,7.16
2022-11-13T10:14:52.544Z,7.26
2022-11-13T10:17:56.395Z,7.44
2022-11-13T10:20:59.048Z,7.60
2022-11-13T10:24:15.344Z,7.66
2022-11-13T10:27:16.090Z,7.73
2022-11-13T10:30:19.244Z,7.75
2022-11-13T10:33:21.298Z,7.83
2022-11-13T10:36:25.576Z,7.95
2022-11-13T10:39:23.724Z,8.01
2022-11-13T10:42:29.908Z,8.05
2022-11-13T10:45:28.375Z,8.14
2022-11-13T10:48:29.821Z,8.23
2022-11-13T10:51:35.150Z,8.41
2022-11-13T10:54:35.209Z,8.68
2022-11-13T10:57:35.471Z,8.97
2022-11-13T11:00:36.941Z,9.37
2022-11-13T11:03:34.997Z,9.64
2022-11-13T11:07:04.499Z,9.82
2022-11-13T11:09:53.921Z,9.92
2022-11-13T11:12:57.432Z,10.11
2022-11-13T11:15:59.777Z,10.38
2022-11-13T11:19:01.203Z,10.59
2022-11-13T11:22:07.775Z,10.89
2022-11-13T11:25:10.905Z,10.92
2022-11-13T11:28:16.880Z,11.23
2022-11-13T11:31:21.816Z,10.93
2022-11-13T11:34:24.943Z,11.11
2022-11-13T11:37:31.156Z,11.22
2022-11-13T11:40:37.166Z,11.36
2022-11-13T11:43:41.895Z,11.27
2022-11-13T11:46:46.402Z,11.19
2022-11-13T11:49:46.120Z,11.30
2022-11-13T11:53:05.651Z,11.29
2022-11-13T11:56:16.090Z,11.24
2022-11-13T11:59:31.294Z,11.58
2022-11-13T12:02:49.844Z,11.27
2022-11-13T12:05:58.571Z,11.61
2022-11-13T12:09:01.991Z,11.71
2022-11-13T12:12:08.109Z,11.82
2022-11-13T12:15:16.564Z,11.74
2022-11-13T12:18:20.788Z,11.36
2022-11-13T12:21:23.494Z,11.60
2022-11-13T12:24:46.259Z,11.62
2022-11-13T12:27:48.742Z,11.55
2022-11-13T12:30:55.591Z,11.56
2022-11-13T12:34:01.697Z,11.58
2022-11-13T12:37:01.394Z,11.75
2022-11-13T12:40:05.524Z,11.83
2022-11-13T12:43:18.746Z,12.01
2022-11-13T12:46:17.694Z,11.47
2022-11-13T12:49:28.954Z,11.80
2022-11-13T12:52:33.385Z,11.71
2022-11-13T12:55:35.495Z,11.65
2022-11-13T12:58:34.257Z,11.39
2022-11-13T13:01:35.263Z,11.38
2022-11-13T13:04:48.404Z,11.37
2022-11-13T13:08:05.131Z,11.14
2022-11-13T13:11:13.573Z,10.50
2022-11-13T13:14:34.615Z,10.52
2022-11-13T13:17:33.763Z,10.43
2022-11-13T13:20:36.141Z,10.25
2022-11-13T13:23:36.980Z,9.87
2022-11-13T13:26:45.472Z,9.58
2022-11-13T13:29:44.100Z,9.55
2022-11-13T13:32:51.921Z,9.53
2022-11-13T13:35:53.201Z,9.64
2022-11-13T13:38:57.213Z,9.63
2022-11-13T13:42:08.198Z,9.45
2022-11-13T13:45:24.772Z,9.54
2022-11-13T13:48:26.609Z,9.02
2022-11-13T13:51:27.995Z,9.28
2022-11-13T13:54:31.182Z,9.15
2022-11-13T13:57:30.346Z,9.26
2022-11-13T14:00:59.081Z,9.00
2022-11-13T14:04:18.582Z,8.97
2022-11-13T14:07:27.011Z,8.86
2022-11-13T14:10:29.840Z,8.35
2022-11-13T14:13:30.203Z,8.64
2022-11-13T14:16:29.427Z,8.39
2022-11-13T14:19:28.884Z,8.38
2022-11-13T14:22:27.897Z,8.23
2022-11-13T14:25:28.801Z,8.21
2022-11-13T14:28:31.187Z,8.06
2022-11-13T14:31:32.563Z,7.98
2022-11-13T14:34:31.664Z,7.94
2022-11-13T14:37:35.065Z,7.88
2022-11-13T14:40:35.693Z,7.60
2022-11-13T14:43:36.919Z,7.50
2022-11-13T14:46:39.463Z,7.58
2022-11-13T14:49:38.488Z,7.31
2022-11-13T14:52:36.779Z,7.52
2022-11-13T14:55:38.802Z,7.53
2022-11-13T14:58:39.923Z,7.48
2022-11-13T15:01:38.737Z,7.51
2022-11-13T15:04:40.429Z,7.43
2022-11-13T15:07:42.292Z,7.23
2022-11-13T15:10:39.233Z,7.28
2022-11-13T15:13:37.779Z,7.13
2022-11-13T15:16:37.056Z,7.20
2022-11-13T15:19:37.259Z,7.28
2022-11-13T15:22:39.794Z,7.22
2022-11-13T15:25:42.884Z,7.19
2022-11-13T15:28:41.013Z,6.95
2022-11-13T15:31:42.185Z,6.98
2022-11-13T15:34:42.520Z,6.94
2022-11-13T15:37:41.108Z,6.84
2022-11-13T15:40:40.122Z,6.89
2022-11-13T15:43:39.301Z,6.91
2022-11-13T15:46:51.524Z,6.98
2022-11-13T15:50:12.420Z,6.90
2022-11-13T15:53:13.050Z,6.85
2022-11-13T15:56:12.507Z,6.84
2022-11-13T15:59:12.715Z,6.64
2022-11-13T16:02:12.188Z,6.66
2022-11-13T16:05:16.065Z,6.75
2022-11-13T16:08:16.483Z,6.74
2022-11-13T16:11:15.965Z,6.63
2022-11-13T16:14:14.467Z,6.61
2022-11-13T16:17:16.520Z,6.49
2022-11-13T16:20:18.631Z,6.50
2022-11-13T16:23:17.914Z,6.55
2022-11-13T16:26:19.504Z,6.51
2022-11-13T16:29:20.389Z,6.59
2022-11-13T16:32:19.755Z,6.53
2022-11-13T16:35:21.293Z,6.49
2022-11-13T16:38:19.320Z,6.49
2022-11-13T16:41:18.370Z,6.45
2022-11-13T16:44:17.335Z,6.56
2022-11-13T16:47:36.525Z,6.48
2022-11-13T16:50:36.870Z,6.41
2022-11-13T16:53:35.209Z,6.52
2022-11-13T16:56:34.491Z,6.57
2022-11-13T16:59:35.369Z,6.59
2022-11-13T17:02:34.215Z,6.54
2022-11-13T17:05:43.480Z,6.60
2022-11-13T17:08:41.573Z,6.58
2022-11-13T17:11:40.774Z,6.51
2022-11-13T17:14:38.738Z,6.54
2022-11-13T17:17:37.019Z,6.62
2022-11-13T17:20:38.022Z,6.70
2022-11-13T17:23:36.680Z,6.62
2022-11-13T17:26:35.602Z,6.70
2022-11-13T17:29:34.621Z,6.68
2022-11-13T17:32:33.680Z,6.66
2022-11-13T17:35:32.648Z,6.63
2022-11-13T17:38:33.641Z,6.73
2022-11-13T17:41:43.012Z,6.78
2022-11-13T17:44:41.092Z,6.71
2022-11-13T17:47:40.038Z,6.77
2022-11-13T17:50:39.084Z,6.84
2022-11-13T17:53:58.487Z,6.80
2022-11-13T17:56:57.909Z,6.80
2022-11-13T17:59:56.904Z,6.78
2022-11-13T18:02:57.577Z,6.73
2022-11-13T18:05:56.908Z,6.76
2022-11-13T18:08:55.591Z,6.75
2022-11-13T18:11:56.573Z,6.79
2022-11-13T18:14:55.141Z,6.84
2022-11-13T18:18:07.847Z,6.86
2022-11-13T18:21:22.345Z,6.93
2022-11-13T18:24:21.675Z,6.81
2022-11-13T18:27:20.539Z,6.89
2022-11-13T18:30:19.301Z,6.75
2022-11-13T18:33:19.328Z,6.81
2022-11-13T18:36:17.774Z,6.77
2022-11-13T18:39:17.034Z,6.84
2022-11-13T18:42:15.627Z,6.89
2022-11-13T18:45:16.253Z,6.86
2022-11-13T18:48:15.141Z,6.80
2022-11-13T18:51:16.106Z,6.91
2022-11-13T18:54:14.837Z,6.90
2022-11-13T18:57:13.926Z,6.87
2022-11-13T19:00:32.336Z,6.93
2022-11-13T19:03:31.323Z,6.92
2022-11-13T19:06:30.005Z,6.93
2022-11-13T19:09:29.332Z,7.05
2022-11-13T19:12:29.152Z,7.03
2022-11-13T19:15:27.100Z,7.01
2022-11-13T19:18:26.430Z,7.07
2022-11-13T19:21:26.100Z,7.05
2022-11-13T19:24:54.505Z,6.99
2022-11-13T19:27:54.781Z,6.90
2022-11-13T19:31:07.943Z,6.90
2022-11-13T19:37:34.448Z,6.90
2022-11-13T19:40:49.916Z,6.82
2022-11-13T19:43:49.532Z,6.83
2022-11-13T19:46:49.695Z,6.84
2022-11-13T19:49:48.207Z,6.85
2022-11-13T19:52:47.706Z,6.88
2022-11-13T19:55:54.739Z,6.81
2022-11-13T19:58:55.906Z,6.88
2022-11-13T20:01:55.305Z,6.85
2022-11-13T20:04:53.306Z,6.88
2022-11-13T20:07:52.303Z,6.94
2022-11-13T20:10:51.271Z,6.93
2022-11-13T20:13:51.302Z,6.99
2022-11-13T20:16:48.070Z,6.92
2022-11-13T20:19:46.782Z,6.95
2022-11-13T20:22:57.538Z,7.06
2022-11-13T20:26:00.279Z,7.03
2022-11-13T20:28:59.739Z,7.01
2022-11-13T20:31:57.740Z,7.07
2022-11-13T20:34:58.768Z,7.09
2022-11-13T20:37:57.958Z,7.07
2022-11-13T20:40:56.424Z,7.12
2022-11-13T20:43:56.527Z,7.09
2022-11-13T20:46:55.925Z,7.13
2022-11-13T20:49:54.711Z,7.09
2022-11-13T20:52:56.961Z,7.13
2022-11-13T20:55:56.240Z,7.17
2022-11-13T20:58:54.360Z,7.13
2022-11-13T21:01:52.660Z,7.14
2022-11-13T21:04:53.632Z,7.07
2022-11-13T21:07:53.686Z,7.15
2022-11-13T21:10:53.044Z,7.15
2022-11-13T21:13:55.327Z,7.12
2022-11-13T21:16:52.790Z,7.09
2022-11-13T21:19:56.567Z,7.06
2022-11-13T21:22:59.148Z,7.02
2022-11-13T21:26:01.258Z,7.00
2022-11-13T21:29:00.487Z,7.03
2022-11-13T21:31:57.381Z,6.99
2022-11-13T21:35:00.214Z,7.01
2022-11-13T21:38:00.322Z,7.05
2022-11-13T21:41:25.517Z,7.05
2022-11-13T21:44:28.064Z,7.03
2022-11-13T21:47:27.315Z,7.00
2022-11-13T21:50:26.261Z,7.03
2022-11-13T21:53:26.120Z,6.84
2022-11-13T21:56:25.022Z,6.84
2022-11-13T21:59:34.000Z,6.85
2022-11-13T22:02:32.161Z,6.81
2022-11-13T22:05:33.095Z,6.82
2022-11-13T22:08:32.031Z,6.70
2022-11-13T22:11:33.843Z,6.77
2022-11-13T22:14:34.917Z,6.84
2022-11-13T22:17:33.645Z,6.84
2022-11-13T22:20:33.381Z,6.78
2022-11-13T22:23:31.891Z,6.74
2022-11-13T22:26:31.555Z,6.72
2022-11-13T22:29:30.583Z,6.80
2022-11-13T22:32:31.287Z,6.82
2022-11-13T22:35:29.208Z,6.67
2022-11-13T22:38:28.617Z,6.70
2022-11-13T22:41:29.268Z,6.65
2022-11-13T22:44:45.771Z,6.73
2022-11-13T22:47:46.391Z,6.58
2022-11-13T22:50:43.786Z,6.61
2022-11-13T22:53:48.705Z,6.54
2022-11-13T22:56:47.811Z,6.54
2022-11-13T22:59:46.842Z,6.56
2022-11-13T23:02:47.885Z,6.51
2022-11-13T23:05:46.479Z,6.56
2022-11-13T23:08:46.644Z,6.38
2022-11-13T23:11:44.479Z,6.40
2022-11-13T23:14:44.468Z,6.44
2022-11-13T23:17:42.535Z,6.45
2022-11-13T23:20:43.962Z,6.25
2022-11-13T23:23:42.527Z,6.31
2022-11-13T23:26:43.151Z,6.29
2022-11-13T23:30:01.944Z,6.33
2022-11-13T23:32:58.660Z,6.30
2022-11-13T23:35:59.367Z,6.32
2022-11-13T23:38:57.994Z,6.19
2022-11-13T23:41:56.967Z,6.25
2022-11-13T23:44:56.053Z,6.21
2022-11-13T23:47:54.952Z,6.18
2022-11-13T23:50:55.941Z,6.09
2022-11-13T23:53:54.587Z,6.25
2022-11-13T23:57:05.481Z,6.24
